sensor_id;sensor_type;location;lat;lon;timestamp;P1;durP1;ratioP1;P2;durP2;ratioP2
66546;SDS011;53400;50.364;14.874;2023-05-28T00:00:03;9.07;;;3.05;;
66546;SDS011;53400;50.364;14.874;2023-05-28T00:02:29;8.80;;;3.38;;
66546;SDS011;53400;50.364;14.874;2023-05-28T00:04:55;7.03;;;2.88;;
66546;SDS011;53400;50.364;14.874;2023-05-28T00:07:21;8.40;;;3.25;;
66546;SDS011;53400;50.364;14.874;2023-05-28T00:09:50;6.95;;;2.97;;
66546;SDS011;53400;50.364;14.874;2023-05-28T00:12:17;7.80;;;3.40;;
66546;SDS011;53400;50.364;14.874;2023-05-28T00:14:43;6.57;;;3.17;;
66546;SDS011;53400;50.364;14.874;2023-05-28T00:17:09;6.15;;;2.80;;
66546;SDS011;53400;50.364;14.874;2023-05-28T00:19:35;8.43;;;3.42;;
66546;SDS011;53400;50.364;14.874;2023-05-28T00:22:01;7.35;;;3.55;;
66546;SDS011;53400;50.364;14.874;2023-05-28T00:24:27;8.75;;;3.40;;
66546;SDS011;53400;50.364;14.874;2023-05-28T00:26:55;9.05;;;4.40;;
66546;SDS011;53400;50.364;14.874;2023-05-28T00:29:20;8.75;;;3.65;;
66546;SDS011;53400;50.364;14.874;2023-05-28T00:31:47;11.40;;;4.32;;
66546;SDS011;53400;50.364;14.874;2023-05-28T00:34:13;9.07;;;4.10;;
66546;SDS011;53400;50.364;14.874;2023-05-28T00:36:39;9.77;;;4.57;;
66546;SDS011;53400;50.364;14.874;2023-05-28T00:39:05;9.60;;;4.00;;
66546;SDS011;53400;50.364;14.874;2023-05-28T00:41:31;10.15;;;3.72;;
66546;SDS011;53400;50.364;14.874;2023-05-28T00:43:58;9.88;;;4.13;;
66546;SDS011;53400;50.364;14.874;2023-05-28T00:46:24;12.43;;;4.47;;
66546;SDS011;53400;50.364;14.874;2023-05-28T00:48:51;10.43;;;4.10;;
66546;SDS011;53400;50.364;14.874;2023-05-28T00:51:17;10.57;;;4.38;;
66546;SDS011;53400;50.364;14.874;2023-05-28T00:53:44;8.30;;;4.22;;
66546;SDS011;53400;50.364;14.874;2023-05-28T00:56:11;9.98;;;4.35;;
66546;SDS011;53400;50.364;14.874;2023-05-28T00:58:37;10.10;;;4.43;;
66546;SDS011;53400;50.364;14.874;2023-05-28T01:01:06;9.10;;;4.13;;
66546;SDS011;53400;50.364;14.874;2023-05-28T01:03:33;8.68;;;4.10;;
66546;SDS011;53400;50.364;14.874;2023-05-28T01:06:04;9.88;;;3.63;;
66546;SDS011;53400;50.364;14.874;2023-05-28T01:08:32;11.27;;;4.53;;
66546;SDS011;53400;50.364;14.874;2023-05-28T01:10:59;9.55;;;4.30;;
66546;SDS011;53400;50.364;14.874;2023-05-28T01:13:25;9.20;;;4.10;;
66546;SDS011;53400;50.364;14.874;2023-05-28T01:15:52;9.45;;;4.15;;
66546;SDS011;53400;50.364;14.874;2023-05-28T01:18:19;9.27;;;4.20;;
66546;SDS011;53400;50.364;14.874;2023-05-28T01:20:45;9.07;;;4.65;;
66546;SDS011;53400;50.364;14.874;2023-05-28T01:23:11;8.63;;;4.03;;
66546;SDS011;53400;50.364;14.874;2023-05-28T01:25:43;10.15;;;4.80;;
66546;SDS011;53400;50.364;14.874;2023-05-28T01:28:13;9.68;;;4.00;;
66546;SDS011;53400;50.364;14.874;2023-05-28T01:30:40;9.45;;;4.68;;
66546;SDS011;53400;50.364;14.874;2023-05-28T01:33:05;11.43;;;4.70;;
66546;SDS011;53400;50.364;14.874;2023-05-28T01:35:32;10.18;;;4.55;;
66546;SDS011;53400;50.364;14.874;2023-05-28T01:37:59;10.52;;;4.65;;
66546;SDS011;53400;50.364;14.874;2023-05-28T01:40:29;9.57;;;4.25;;
66546;SDS011;53400;50.364;14.874;2023-05-28T01:42:58;9.13;;;3.92;;
66546;SDS011;53400;50.364;14.874;2023-05-28T01:45:25;9.82;;;4.25;;
66546;SDS011;53400;50.364;14.874;2023-05-28T01:47:53;11.35;;;4.78;;
66546;SDS011;53400;50.364;14.874;2023-05-28T01:50:20;8.75;;;4.28;;
66546;SDS011;53400;50.364;14.874;2023-05-28T01:52:46;10.25;;;4.32;;
66546;SDS011;53400;50.364;14.874;2023-05-28T01:55:12;11.55;;;4.13;;
66546;SDS011;53400;50.364;14.874;2023-05-28T01:57:38;12.48;;;4.57;;
66546;SDS011;53400;50.364;14.874;2023-05-28T02:00:07;13.60;;;4.43;;
66546;SDS011;53400;50.364;14.874;2023-05-28T02:02:35;11.23;;;4.15;;
66546;SDS011;53400;50.364;14.874;2023-05-28T02:05:01;11.18;;;4.65;;
66546;SDS011;53400;50.364;14.874;2023-05-28T02:07:27;12.18;;;4.55;;
66546;SDS011;53400;50.364;14.874;2023-05-28T02:09:53;10.40;;;4.28;;
66546;SDS011;53400;50.364;14.874;2023-05-28T02:12:19;10.80;;;5.03;;
66546;SDS011;53400;50.364;14.874;2023-05-28T02:14:45;10.23;;;4.50;;
66546;SDS011;53400;50.364;14.874;2023-05-28T02:17:12;13.25;;;4.93;;
66546;SDS011;53400;50.364;14.874;2023-05-28T02:19:38;9.43;;;4.55;;
66546;SDS011;53400;50.364;14.874;2023-05-28T02:22:04;11.45;;;4.78;;
66546;SDS011;53400;50.364;14.874;2023-05-28T02:24:37;11.88;;;4.85;;
66546;SDS011;53400;50.364;14.874;2023-05-28T02:27:03;12.88;;;5.35;;
66546;SDS011;53400;50.364;14.874;2023-05-28T02:29:30;10.50;;;4.60;;
66546;SDS011;53400;50.364;14.874;2023-05-28T02:31:56;10.70;;;4.47;;
66546;SDS011;53400;50.364;14.874;2023-05-28T02:34:24;8.30;;;4.53;;
66546;SDS011;53400;50.364;14.874;2023-05-28T02:36:50;10.25;;;4.20;;
66546;SDS011;53400;50.364;14.874;2023-05-28T02:39:18;11.35;;;4.63;;
66546;SDS011;53400;50.364;14.874;2023-05-28T02:41:44;10.98;;;4.55;;
66546;SDS011;53400;50.364;14.874;2023-05-28T02:44:10;7.95;;;4.00;;
66546;SDS011;53400;50.364;14.874;2023-05-28T02:46:35;10.63;;;4.57;;
66546;SDS011;53400;50.364;14.874;2023-05-28T02:49:01;10.48;;;4.40;;
66546;SDS011;53400;50.364;14.874;2023-05-28T02:51:29;11.88;;;4.55;;
66546;SDS011;53400;50.364;14.874;2023-05-28T02:53:55;11.55;;;4.57;;
66546;SDS011;53400;50.364;14.874;2023-05-28T02:56:20;8.65;;;4.45;;
66546;SDS011;53400;50.364;14.874;2023-05-28T02:58:47;14.73;;;5.20;;
66546;SDS011;53400;50.364;14.874;2023-05-28T03:01:13;10.85;;;4.65;;
66546;SDS011;53400;50.364;14.874;2023-05-28T03:03:39;12.32;;;4.80;;
66546;SDS011;53400;50.364;14.874;2023-05-28T03:06:05;10.98;;;4.40;;
66546;SDS011;53400;50.364;14.874;2023-05-28T03:08:34;9.93;;;4.72;;
66546;SDS011;53400;50.364;14.874;2023-05-28T03:11:00;9.50;;;4.55;;
66546;SDS011;53400;50.364;14.874;2023-05-28T03:13:28;11.80;;;4.97;;
66546;SDS011;53400;50.364;14.874;2023-05-28T03:15:54;11.95;;;4.80;;
66546;SDS011;53400;50.364;14.874;2023-05-28T03:18:20;12.23;;;5.38;;
66546;SDS011;53400;50.364;14.874;2023-05-28T03:20:46;12.30;;;5.22;;
66546;SDS011;53400;50.364;14.874;2023-05-28T03:23:13;12.60;;;5.10;;
66546;SDS011;53400;50.364;14.874;2023-05-28T03:25:40;11.88;;;5.15;;
66546;SDS011;53400;50.364;14.874;2023-05-28T03:28:07;9.75;;;4.97;;
66546;SDS011;53400;50.364;14.874;2023-05-28T03:30:33;10.60;;;5.05;;
66546;SDS011;53400;50.364;14.874;2023-05-28T03:32:59;10.30;;;5.32;;
66546;SDS011;53400;50.364;14.874;2023-05-28T03:35:25;11.45;;;4.80;;
66546;SDS011;53400;50.364;14.874;2023-05-28T03:37:51;12.20;;;4.90;;
66546;SDS011;53400;50.364;14.874;2023-05-28T03:40:17;11.88;;;4.63;;
66546;SDS011;53400;50.364;14.874;2023-05-28T03:42:44;8.73;;;3.95;;
66546;SDS011;53400;50.364;14.874;2023-05-28T03:45:10;9.10;;;4.22;;
66546;SDS011;53400;50.364;14.874;2023-05-28T03:47:36;8.98;;;4.43;;
66546;SDS011;53400;50.364;14.874;2023-05-28T03:50:02;12.05;;;5.20;;
66546;SDS011;53400;50.364;14.874;2023-05-28T03:52:32;15.90;;;5.65;;
66546;SDS011;53400;50.364;14.874;2023-05-28T03:54:58;11.70;;;4.70;;
66546;SDS011;53400;50.364;14.874;2023-05-28T03:57:24;9.50;;;4.65;;
66546;SDS011;53400;50.364;14.874;2023-05-28T03:59:51;9.48;;;4.32;;
66546;SDS011;53400;50.364;14.874;2023-05-28T04:02:18;10.07;;;4.22;;
66546;SDS011;53400;50.364;14.874;2023-05-28T04:04:43;9.35;;;4.53;;
66546;SDS011;53400;50.364;14.874;2023-05-28T04:07:10;8.45;;;4.40;;
66546;SDS011;53400;50.364;14.874;2023-05-28T04:09:36;10.90;;;4.20;;
66546;SDS011;53400;50.364;14.874;2023-05-28T04:12:02;12.32;;;4.75;;
66546;SDS011;53400;50.364;14.874;2023-05-28T04:14:28;10.20;;;4.72;;
66546;SDS011;53400;50.364;14.874;2023-05-28T04:16:56;10.27;;;4.43;;
66546;SDS011;53400;50.364;14.874;2023-05-28T04:19:23;10.27;;;4.15;;
66546;SDS011;53400;50.364;14.874;2023-05-28T04:21:49;9.68;;;4.38;;
66546;SDS011;53400;50.364;14.874;2023-05-28T04:24:15;11.18;;;4.60;;
66546;SDS011;53400;50.364;14.874;2023-05-28T04:26:41;8.27;;;3.95;;
66546;SDS011;53400;50.364;14.874;2023-05-28T04:29:07;10.18;;;4.35;;
66546;SDS011;53400;50.364;14.874;2023-05-28T04:31:33;9.98;;;4.30;;
66546;SDS011;53400;50.364;14.874;2023-05-28T04:34:00;9.73;;;4.00;;
66546;SDS011;53400;50.364;14.874;2023-05-28T04:36:29;7.95;;;3.92;;
66546;SDS011;53400;50.364;14.874;2023-05-28T04:38:58;7.93;;;3.75;;
66546;SDS011;53400;50.364;14.874;2023-05-28T04:41:26;10.80;;;4.28;;
66546;SDS011;53400;50.364;14.874;2023-05-28T04:43:52;9.32;;;3.88;;
66546;SDS011;53400;50.364;14.874;2023-05-28T04:46:18;10.15;;;4.30;;
66546;SDS011;53400;50.364;14.874;2023-05-28T04:48:44;9.77;;;4.65;;
66546;SDS011;53400;50.364;14.874;2023-05-28T04:51:12;10.65;;;4.70;;
66546;SDS011;53400;50.364;14.874;2023-05-28T04:53:38;9.38;;;3.95;;
66546;SDS011;53400;50.364;14.874;2023-05-28T04:56:05;9.73;;;4.68;;
66546;SDS011;53400;50.364;14.874;2023-05-28T04:58:31;9.80;;;4.35;;
66546;SDS011;53400;50.364;14.874;2023-05-28T05:00:57;8.85;;;4.03;;
66546;SDS011;53400;50.364;14.874;2023-05-28T05:03:27;9.60;;;4.68;;
66546;SDS011;53400;50.364;14.874;2023-05-28T05:05:59;9.13;;;4.63;;
66546;SDS011;53400;50.364;14.874;2023-05-28T05:08:26;8.63;;;4.30;;
66546;SDS011;53400;50.364;14.874;2023-05-28T05:10:53;9.38;;;4.20;;
66546;SDS011;53400;50.364;14.874;2023-05-28T05:13:18;9.38;;;4.63;;
66546;SDS011;53400;50.364;14.874;2023-05-28T05:15:46;9.77;;;4.20;;
66546;SDS011;53400;50.364;14.874;2023-05-28T05:18:12;11.00;;;4.57;;
66546;SDS011;53400;50.364;14.874;2023-05-28T05:20:38;8.40;;;3.83;;
66546;SDS011;53400;50.364;14.874;2023-05-28T05:23:04;9.25;;;4.65;;
66546;SDS011;53400;50.364;14.874;2023-05-28T05:25:31;8.57;;;4.15;;
66546;SDS011;53400;50.364;14.874;2023-05-28T05:27:57;8.48;;;4.30;;
66546;SDS011;53400;50.364;14.874;2023-05-28T05:30:23;10.40;;;4.63;;
66546;SDS011;53400;50.364;14.874;2023-05-28T05:32:49;8.82;;;4.30;;
66546;SDS011;53400;50.364;14.874;2023-05-28T05:35:15;10.63;;;4.65;;
66546;SDS011;53400;50.364;14.874;2023-05-28T05:37:42;9.20;;;4.20;;
66546;SDS011;53400;50.364;14.874;2023-05-28T05:40:08;8.68;;;4.20;;
66546;SDS011;53400;50.364;14.874;2023-05-28T05:42:36;9.63;;;4.65;;
66546;SDS011;53400;50.364;14.874;2023-05-28T05:45:03;8.98;;;4.53;;
66546;SDS011;53400;50.364;14.874;2023-05-28T05:47:31;9.30;;;4.88;;
66546;SDS011;53400;50.364;14.874;2023-05-28T05:49:58;8.95;;;4.53;;
66546;SDS011;53400;50.364;14.874;2023-05-28T05:52:25;8.13;;;4.10;;
66546;SDS011;53400;50.364;14.874;2023-05-28T05:54:51;7.32;;;4.25;;
66546;SDS011;53400;50.364;14.874;2023-05-28T05:57:17;10.40;;;4.57;;
66546;SDS011;53400;50.364;14.874;2023-05-28T05:59:45;9.00;;;4.60;;
66546;SDS011;53400;50.364;14.874;2023-05-28T06:02:11;10.70;;;4.55;;
66546;SDS011;53400;50.364;14.874;2023-05-28T06:04:37;8.35;;;4.30;;
66546;SDS011;53400;50.364;14.874;2023-05-28T06:07:03;9.70;;;4.28;;
66546;SDS011;53400;50.364;14.874;2023-05-28T06:09:32;10.15;;;4.55;;
66546;SDS011;53400;50.364;14.874;2023-05-28T06:11:58;9.82;;;4.28;;
66546;SDS011;53400;50.364;14.874;2023-05-28T06:14:25;12.38;;;4.68;;
66546;SDS011;53400;50.364;14.874;2023-05-28T06:16:53;9.73;;;4.65;;
66546;SDS011;53400;50.364;14.874;2023-05-28T06:19:20;10.00;;;4.55;;
66546;SDS011;53400;50.364;14.874;2023-05-28T06:21:47;10.93;;;4.60;;
66546;SDS011;53400;50.364;14.874;2023-05-28T06:24:13;9.30;;;4.65;;
66546;SDS011;53400;50.364;14.874;2023-05-28T06:26:40;8.95;;;4.50;;
66546;SDS011;53400;50.364;14.874;2023-05-28T06:29:07;9.32;;;3.75;;
66546;SDS011;53400;50.364;14.874;2023-05-28T06:31:35;7.57;;;3.53;;
66546;SDS011;53400;50.364;14.874;2023-05-28T06:34:03;11.63;;;4.70;;
66546;SDS011;53400;50.364;14.874;2023-05-28T06:36:29;8.55;;;4.70;;
66546;SDS011;53400;50.364;14.874;2023-05-28T06:38:55;9.02;;;4.30;;
66546;SDS011;53400;50.364;14.874;2023-05-28T06:41:21;8.18;;;3.78;;
66546;SDS011;53400;50.364;14.874;2023-05-28T06:43:47;9.80;;;4.18;;
66546;SDS011;53400;50.364;14.874;2023-05-28T06:46:13;9.63;;;3.90;;
66546;SDS011;53400;50.364;14.874;2023-05-28T06:48:39;9.18;;;3.60;;
66546;SDS011;53400;50.364;14.874;2023-05-28T06:51:07;10.57;;;3.70;;
66546;SDS011;53400;50.364;14.874;2023-05-28T06:53:33;9.45;;;3.80;;
66546;SDS011;53400;50.364;14.874;2023-05-28T06:55:59;8.40;;;3.80;;
66546;SDS011;53400;50.364;14.874;2023-05-28T06:58:26;8.50;;;3.50;;
66546;SDS011;53400;50.364;14.874;2023-05-28T07:00:52;7.22;;;3.55;;
66546;SDS011;53400;50.364;14.874;2023-05-28T07:03:18;8.75;;;3.85;;
66546;SDS011;53400;50.364;14.874;2023-05-28T07:05:44;8.05;;;3.50;;
66546;SDS011;53400;50.364;14.874;2023-05-28T07:08:11;9.02;;;3.50;;
66546;SDS011;53400;50.364;14.874;2023-05-28T07:10:38;8.43;;;3.55;;
66546;SDS011;53400;50.364;14.874;2023-05-28T07:13:04;7.53;;;3.17;;
66546;SDS011;53400;50.364;14.874;2023-05-28T07:15:30;9.57;;;3.75;;
66546;SDS011;53400;50.364;14.874;2023-05-28T07:17:56;8.02;;;3.42;;
66546;SDS011;53400;50.364;14.874;2023-05-28T07:20:22;9.70;;;3.65;;
66546;SDS011;53400;50.364;14.874;2023-05-28T07:22:54;7.35;;;3.60;;
66546;SDS011;53400;50.364;14.874;2023-05-28T07:25:21;7.70;;;3.53;;
66546;SDS011;53400;50.364;14.874;2023-05-28T07:27:48;7.05;;;3.10;;
66546;SDS011;53400;50.364;14.874;2023-05-28T07:30:14;8.02;;;3.50;;
66546;SDS011;53400;50.364;14.874;2023-05-28T07:32:40;7.93;;;3.72;;
66546;SDS011;53400;50.364;14.874;2023-05-28T07:35:06;6.63;;;2.95;;
66546;SDS011;53400;50.364;14.874;2023-05-28T07:37:34;6.68;;;3.05;;
66546;SDS011;53400;50.364;14.874;2023-05-28T07:40:00;7.28;;;2.80;;
66546;SDS011;53400;50.364;14.874;2023-05-28T07:42:28;5.72;;;2.83;;
66546;SDS011;53400;50.364;14.874;2023-05-28T07:44:54;9.95;;;4.60;;
66546;SDS011;53400;50.364;14.874;2023-05-28T07:47:21;8.45;;;3.13;;
66546;SDS011;53400;50.364;14.874;2023-05-28T07:49:48;5.63;;;2.30;;
66546;SDS011;53400;50.364;14.874;2023-05-28T07:52:15;6.93;;;2.88;;
66546;SDS011;53400;50.364;14.874;2023-05-28T07:54:41;6.85;;;2.50;;
66546;SDS011;53400;50.364;14.874;2023-05-28T07:57:07;5.93;;;2.40;;
66546;SDS011;53400;50.364;14.874;2023-05-28T07:59:37;7.43;;;2.92;;
66546;SDS011;53400;50.364;14.874;2023-05-28T08:02:11;6.78;;;3.08;;
66546;SDS011;53400;50.364;14.874;2023-05-28T08:04:37;6.32;;;2.63;;
66546;SDS011;53400;50.364;14.874;2023-05-28T08:07:03;5.53;;;2.13;;
66546;SDS011;53400;50.364;14.874;2023-05-28T08:09:29;7.45;;;2.65;;
66546;SDS011;53400;50.364;14.874;2023-05-28T08:11:55;6.05;;;2.30;;
66546;SDS011;53400;50.364;14.874;2023-05-28T08:14:21;5.50;;;2.30;;
66546;SDS011;53400;50.364;14.874;2023-05-28T08:16:48;5.82;;;3.03;;
66546;SDS011;53400;50.364;14.874;2023-05-28T08:19:14;8.10;;;2.45;;
66546;SDS011;53400;50.364;14.874;2023-05-28T08:21:41;5.57;;;2.35;;
66546;SDS011;53400;50.364;14.874;2023-05-28T08:24:17;5.70;;;2.40;;
66546;SDS011;53400;50.364;14.874;2023-05-28T08:26:44;7.70;;;2.70;;
66546;SDS011;53400;50.364;14.874;2023-05-28T08:29:10;6.72;;;2.50;;
66546;SDS011;53400;50.364;14.874;2023-05-28T08:31:37;9.10;;;2.80;;
66546;SDS011;53400;50.364;14.874;2023-05-28T08:34:04;7.78;;;2.90;;
66546;SDS011;53400;50.364;14.874;2023-05-28T08:36:30;7.25;;;2.55;;
66546;SDS011;53400;50.364;14.874;2023-05-28T08:38:56;6.20;;;2.60;;
66546;SDS011;53400;50.364;14.874;2023-05-28T08:41:23;5.93;;;2.85;;
66546;SDS011;53400;50.364;14.874;2023-05-28T08:43:51;7.28;;;2.80;;
66546;SDS011;53400;50.364;14.874;2023-05-28T08:46:29;7.85;;;3.00;;
66546;SDS011;53400;50.364;14.874;2023-05-28T08:48:57;5.35;;;2.42;;
66546;SDS011;53400;50.364;14.874;2023-05-28T08:51:25;6.22;;;2.80;;
66546;SDS011;53400;50.364;14.874;2023-05-28T08:53:58;7.72;;;3.10;;
66546;SDS011;53400;50.364;14.874;2023-05-28T08:56:31;7.07;;;3.00;;
66546;SDS011;53400;50.364;14.874;2023-05-28T08:58:57;8.75;;;3.22;;
66546;SDS011;53400;50.364;14.874;2023-05-28T09:01:24;9.75;;;3.78;;
66546;SDS011;53400;50.364;14.874;2023-05-28T09:03:51;8.05;;;3.15;;
66546;SDS011;53400;50.364;14.874;2023-05-28T09:06:18;7.07;;;3.60;;
66546;SDS011;53400;50.364;14.874;2023-05-28T09:08:46;8.07;;;3.13;;
66546;SDS011;53400;50.364;14.874;2023-05-28T09:11:14;7.35;;;3.30;;
66546;SDS011;53400;50.364;14.874;2023-05-28T09:13:41;7.45;;;3.05;;
66546;SDS011;53400;50.364;14.874;2023-05-28T09:16:08;9.88;;;3.53;;
66546;SDS011;53400;50.364;14.874;2023-05-28T09:18:37;9.63;;;3.50;;
66546;SDS011;53400;50.364;14.874;2023-05-28T09:21:07;6.82;;;3.20;;
66546;SDS011;53400;50.364;14.874;2023-05-28T09:23:37;7.20;;;3.30;;
66546;SDS011;53400;50.364;14.874;2023-05-28T09:26:08;7.28;;;3.22;;
66546;SDS011;53400;50.364;14.874;2023-05-28T09:28:35;6.90;;;2.88;;
66546;SDS011;53400;50.364;14.874;2023-05-28T09:31:04;8.90;;;3.33;;
66546;SDS011;53400;50.364;14.874;2023-05-28T09:33:33;9.57;;;3.40;;
66546;SDS011;53400;50.364;14.874;2023-05-28T09:36:02;7.88;;;3.00;;
66546;SDS011;53400;50.364;14.874;2023-05-28T09:38:37;6.10;;;2.95;;
66546;SDS011;53400;50.364;14.874;2023-05-28T09:41:04;8.55;;;3.00;;
66546;SDS011;53400;50.364;14.874;2023-05-28T09:43:32;7.45;;;2.95;;
66546;SDS011;53400;50.364;14.874;2023-05-28T09:46:05;15.15;;;5.15;;
66546;SDS011;53400;50.364;14.874;2023-05-28T09:48:32;7.75;;;2.70;;
66546;SDS011;53400;50.364;14.874;2023-05-28T09:50:59;9.43;;;2.92;;
66546;SDS011;53400;50.364;14.874;2023-05-28T09:53:32;8.13;;;2.90;;
66546;SDS011;53400;50.364;14.874;2023-05-28T09:56:03;13.65;;;3.88;;
66546;SDS011;53400;50.364;14.874;2023-05-28T09:58:32;21.58;;;6.13;;
66546;SDS011;53400;50.364;14.874;2023-05-28T10:01:00;16.13;;;4.88;;
66546;SDS011;53400;50.364;14.874;2023-05-28T10:03:34;7.28;;;3.00;;
66546;SDS011;53400;50.364;14.874;2023-05-28T10:06:04;8.13;;;3.42;;
66546;SDS011;53400;50.364;14.874;2023-05-28T10:08:37;6.90;;;3.08;;
66546;SDS011;53400;50.364;14.874;2023-05-28T10:11:07;11.52;;;3.80;;
66546;SDS011;53400;50.364;14.874;2023-05-28T10:13:37;7.38;;;2.95;;
66546;SDS011;53400;50.364;14.874;2023-05-28T10:16:04;7.63;;;3.33;;
66546;SDS011;53400;50.364;14.874;2023-05-28T10:18:30;9.82;;;3.30;;
66546;SDS011;53400;50.364;14.874;2023-05-28T10:20:57;8.98;;;3.42;;
66546;SDS011;53400;50.364;14.874;2023-05-28T10:23:24;8.70;;;3.05;;
66546;SDS011;53400;50.364;14.874;2023-05-28T10:25:50;8.02;;;3.38;;
66546;SDS011;53400;50.364;14.874;2023-05-28T10:28:18;8.10;;;3.10;;
66546;SDS011;53400;50.364;14.874;2023-05-28T10:30:58;6.60;;;3.20;;
66546;SDS011;53400;50.364;14.874;2023-05-28T10:33:25;7.15;;;2.95;;
66546;SDS011;53400;50.364;14.874;2023-05-28T10:35:52;6.57;;;2.92;;
66546;SDS011;53400;50.364;14.874;2023-05-28T10:38:19;8.38;;;3.25;;
66546;SDS011;53400;50.364;14.874;2023-05-28T10:40:46;6.03;;;3.00;;
66546;SDS011;53400;50.364;14.874;2023-05-28T10:46:14;9.90;;;3.58;;
66546;SDS011;53400;50.364;14.874;2023-05-28T10:48:42;6.25;;;2.75;;
66546;SDS011;53400;50.364;14.874;2023-05-28T10:51:42;8.68;;;3.03;;
66546;SDS011;53400;50.364;14.874;2023-05-28T10:54:15;6.63;;;2.92;;
66546;SDS011;53400;50.364;14.874;2023-05-28T10:59:36;5.88;;;3.13;;
66546;SDS011;53400;50.364;14.874;2023-05-28T11:02:05;6.40;;;2.83;;
66546;SDS011;53400;50.364;14.874;2023-05-28T11:04:41;6.90;;;2.75;;
66546;SDS011;53400;50.364;14.874;2023-05-28T11:07:07;7.20;;;3.05;;
66546;SDS011;53400;50.364;14.874;2023-05-28T11:09:33;6.65;;;3.03;;
66546;SDS011;53400;50.364;14.874;2023-05-28T11:12:00;8.32;;;3.08;;
66546;SDS011;53400;50.364;14.874;2023-05-28T11:14:33;8.55;;;3.28;;
66546;SDS011;53400;50.364;14.874;2023-05-28T11:17:01;6.43;;;2.67;;
66546;SDS011;53400;50.364;14.874;2023-05-28T11:19:38;7.03;;;2.80;;
66546;SDS011;53400;50.364;14.874;2023-05-28T11:24:32;7.25;;;3.17;;
66546;SDS011;53400;50.364;14.874;2023-05-28T11:26:58;9.55;;;3.40;;
66546;SDS011;53400;50.364;14.874;2023-05-28T11:29:24;7.70;;;3.33;;
66546;SDS011;53400;50.364;14.874;2023-05-28T11:31:50;6.38;;;3.05;;
66546;SDS011;53400;50.364;14.874;2023-05-28T11:34:20;7.30;;;3.10;;
66546;SDS011;53400;50.364;14.874;2023-05-28T11:36:48;7.55;;;3.15;;
66546;SDS011;53400;50.364;14.874;2023-05-28T11:39:15;7.85;;;3.05;;
66546;SDS011;53400;50.364;14.874;2023-05-28T11:41:41;6.45;;;3.22;;
66546;SDS011;53400;50.364;14.874;2023-05-28T11:46:55;7.25;;;3.15;;
66546;SDS011;53400;50.364;14.874;2023-05-28T11:49:23;8.27;;;2.97;;
66546;SDS011;53400;50.364;14.874;2023-05-28T11:51:51;6.90;;;3.20;;
66546;SDS011;53400;50.364;14.874;2023-05-28T11:54:19;7.30;;;3.10;;
66546;SDS011;53400;50.364;14.874;2023-05-28T11:56:47;8.63;;;3.45;;
66546;SDS011;53400;50.364;14.874;2023-05-28T11:59:15;9.43;;;3.10;;
66546;SDS011;53400;50.364;14.874;2023-05-28T12:01:41;8.30;;;3.65;;
66546;SDS011;53400;50.364;14.874;2023-05-28T12:04:07;8.90;;;3.42;;
66546;SDS011;53400;50.364;14.874;2023-05-28T12:06:35;6.85;;;2.90;;
66546;SDS011;53400;50.364;14.874;2023-05-28T12:09:14;6.55;;;2.80;;
66546;SDS011;53400;50.364;14.874;2023-05-28T12:11:41;7.28;;;3.15;;
66546;SDS011;53400;50.364;14.874;2023-05-28T12:14:13;6.22;;;2.88;;
66546;SDS011;53400;50.364;14.874;2023-05-28T12:16:42;6.85;;;3.15;;
66546;SDS011;53400;50.364;14.874;2023-05-28T12:19:12;8.25;;;3.20;;
66546;SDS011;53400;50.364;14.874;2023-05-28T12:21:42;8.63;;;2.97;;
66546;SDS011;53400;50.364;14.874;2023-05-28T12:24:12;8.32;;;3.22;;
66546;SDS011;53400;50.364;14.874;2023-05-28T12:26:39;8.13;;;3.10;;
66546;SDS011;53400;50.364;14.874;2023-05-28T12:29:05;7.45;;;2.80;;
66546;SDS011;53400;50.364;14.874;2023-05-28T12:31:32;8.00;;;3.40;;
66546;SDS011;53400;50.364;14.874;2023-05-28T12:33:58;6.95;;;2.85;;
66546;SDS011;53400;50.364;14.874;2023-05-28T12:36:24;6.95;;;2.80;;
66546;SDS011;53400;50.364;14.874;2023-05-28T12:38:51;9.35;;;4.00;;
66546;SDS011;53400;50.364;14.874;2023-05-28T12:41:18;7.47;;;3.22;;
66546;SDS011;53400;50.364;14.874;2023-05-28T12:43:43;10.27;;;4.25;;
66546;SDS011;53400;50.364;14.874;2023-05-28T12:46:10;6.53;;;2.65;;
66546;SDS011;53400;50.364;14.874;2023-05-28T12:48:35;7.13;;;2.80;;
66546;SDS011;53400;50.364;14.874;2023-05-28T12:51:02;6.70;;;2.90;;
66546;SDS011;53400;50.364;14.874;2023-05-28T12:53:28;8.10;;;3.00;;
66546;SDS011;53400;50.364;14.874;2023-05-28T12:55:56;6.93;;;3.17;;
66546;SDS011;53400;50.364;14.874;2023-05-28T12:58:22;6.97;;;3.10;;
66546;SDS011;53400;50.364;14.874;2023-05-28T13:00:49;10.07;;;3.10;;
66546;SDS011;53400;50.364;14.874;2023-05-28T13:03:15;9.75;;;3.45;;
66546;SDS011;53400;50.364;14.874;2023-05-28T13:05:41;6.25;;;2.78;;
66546;SDS011;53400;50.364;14.874;2023-05-28T13:08:07;6.30;;;2.80;;
66546;SDS011;53400;50.364;14.874;2023-05-28T13:10:33;8.48;;;3.10;;
66546;SDS011;53400;50.364;14.874;2023-05-28T13:13:00;6.47;;;3.08;;
66546;SDS011;53400;50.364;14.874;2023-05-28T13:15:26;7.82;;;3.10;;
66546;SDS011;53400;50.364;14.874;2023-05-28T13:17:52;5.88;;;2.63;;
66546;SDS011;53400;50.364;14.874;2023-05-28T13:20:18;8.02;;;3.28;;
66546;SDS011;53400;50.364;14.874;2023-05-28T13:22:44;6.60;;;2.97;;
66546;SDS011;53400;50.364;14.874;2023-05-28T13:25:12;5.53;;;2.85;;
66546;SDS011;53400;50.364;14.874;2023-05-28T13:27:38;5.68;;;2.72;;
66546;SDS011;53400;50.364;14.874;2023-05-28T13:30:06;8.63;;;3.20;;
66546;SDS011;53400;50.364;14.874;2023-05-28T13:32:33;7.00;;;3.13;;
66546;SDS011;53400;50.364;14.874;2023-05-28T13:35:00;7.53;;;3.20;;
66546;SDS011;53400;50.364;14.874;2023-05-28T13:37:25;7.47;;;3.20;;
66546;SDS011;53400;50.364;14.874;2023-05-28T13:39:53;7.55;;;3.03;;
66546;SDS011;53400;50.364;14.874;2023-05-28T13:42:19;6.28;;;2.80;;
66546;SDS011;53400;50.364;14.874;2023-05-28T13:44:47;7.93;;;2.90;;
66546;SDS011;53400;50.364;14.874;2023-05-28T13:47:14;7.63;;;3.05;;
66546;SDS011;53400;50.364;14.874;2023-05-28T13:49:41;7.28;;;3.00;;
66546;SDS011;53400;50.364;14.874;2023-05-28T13:52:07;5.80;;;2.85;;
66546;SDS011;53400;50.364;14.874;2023-05-28T13:54:33;7.43;;;2.88;;
66546;SDS011;53400;50.364;14.874;2023-05-28T13:57:00;7.45;;;3.35;;
66546;SDS011;53400;50.364;14.874;2023-05-28T13:59:27;6.07;;;2.80;;
66546;SDS011;53400;50.364;14.874;2023-05-28T14:01:52;5.97;;;2.97;;
66546;SDS011;53400;50.364;14.874;2023-05-28T14:04:28;8.93;;;3.30;;
66546;SDS011;53400;50.364;14.874;2023-05-28T14:06:54;7.22;;;3.03;;
66546;SDS011;53400;50.364;14.874;2023-05-28T14:09:20;9.45;;;3.00;;
66546;SDS011;53400;50.364;14.874;2023-05-28T14:11:46;7.32;;;3.25;;
66546;SDS011;53400;50.364;14.874;2023-05-28T14:14:12;5.95;;;2.70;;
66546;SDS011;53400;50.364;14.874;2023-05-28T14:16:38;7.55;;;2.80;;
66546;SDS011;53400;50.364;14.874;2023-05-28T14:19:04;7.10;;;2.85;;
66546;SDS011;53400;50.364;14.874;2023-05-28T14:21:32;6.60;;;2.47;;
66546;SDS011;53400;50.364;14.874;2023-05-28T14:23:58;8.02;;;2.85;;
66546;SDS011;53400;50.364;14.874;2023-05-28T14:26:23;6.10;;;2.90;;
66546;SDS011;53400;50.364;14.874;2023-05-28T14:28:51;6.28;;;2.75;;
66546;SDS011;53400;50.364;14.874;2023-05-28T14:31:26;7.15;;;2.92;;
66546;SDS011;53400;50.364;14.874;2023-05-28T14:33:52;7.70;;;3.33;;
66546;SDS011;53400;50.364;14.874;2023-05-28T14:36:18;7.43;;;3.08;;
66546;SDS011;53400;50.364;14.874;2023-05-28T14:38:46;6.68;;;3.08;;
66546;SDS011;53400;50.364;14.874;2023-05-28T14:41:12;5.50;;;2.70;;